Time;durP1;ratioP1;P1;durP2;ratioP2;P2;SDS_P1;SDS_P2;PMS_P1;PMS_P2;Temp;Humidity;BMP_temperature;BMP_pressure;BME280_temperature;BME280_humidity;BME280_pressure;Samples;Min_cycle;Max_cycle;Signal;HPM_P1;HPM_P2
2021/08/30 00:00:25;;;;;;;9.10;6.68;;;25.30;62.30;;;;;;4831406;29;20041;-62
2021/08/30 00:02:50;;;;;;;9.35;6.60;;;25.20;62.20;;;;;;4840922;29;20565;-64
2021/08/30 00:05:16;;;;;;;9.43;6.70;;;25.20;62.30;;;;;;4841396;29;20122;-63
2021/08/30 00:07:42;;;;;;;9.15;6.47;;;25.20;62.40;;;;;;4841553;29;20026;-62
2021/08/30 00:10:08;;;;;;;9.40;6.30;;;25.20;62.50;;;;;;4841404;29;20086;-63
2021/08/30 00:12:39;;;;;;;9.30;6.43;;;25.20;62.60;;;;;;4841337;29;20411;-64
2021/08/30 00:15:07;;;;;;;7.80;6.05;;;25.10;62.60;;;;;;4841335;29;20351;-62
2021/08/30 00:17:33;;;;;;;8.45;5.97;;;25.10;62.70;;;;;;4841086;29;20062;-64
2021/08/30 00:19:58;;;;;;;7.65;5.55;;;25.10;62.80;;;;;;4841381;29;20041;-63
2021/08/30 00:22:24;;;;;;;8.40;5.80;;;25.10;62.90;;;;;;4841245;29;20069;-63
2021/08/30 00:24:50;;;;;;;8.25;6.20;;;25.10;63.00;;;;;;4840838;29;20034;-62
2021/08/30 00:27:15;;;;;;;8.20;6.13;;;25.10;63.10;;;;;;4841332;29;20038;-63
2021/08/30 00:29:41;;;;;;;8.32;5.90;;;25.00;63.20;;;;;;4841249;29;20108;-63
2021/08/30 00:32:07;;;;;;;8.85;6.15;;;25.00;63.30;;;;;;4832358;29;20101;-62
2021/08/30 00:34:32;;;;;;;8.20;6.53;;;25.00;63.40;;;;;;4841032;29;20029;-63
2021/08/30 00:36:58;;;;;;;7.80;6.03;;;25.00;64.30;;;;;;4840985;29;20030;-63
2021/08/30 00:39:25;;;;;;;8.88;6.55;;;25.00;63.80;;;;;;4841037;29;20492;-63
2021/08/30 00:41:54;;;;;;;8.77;6.63;;;25.00;64.00;;;;;;4841166;29;20037;-63
2021/08/30 00:44:24;;;;;;;8.63;6.32;;;25.00;64.20;;;;;;4841042;29;20477;-63
2021/08/30 00:46:50;;;;;;;7.53;5.97;;;25.00;64.30;;;;;;4840783;29;20078;-62
2021/08/30 00:49:16;;;;;;;8.80;6.72;;;24.90;64.40;;;;;;4840984;29;20042;-63
2021/08/30 00:51:42;;;;;;;9.68;6.53;;;24.90;64.60;;;;;;4830418;29;20030;-63
2021/08/30 00:54:09;;;;;;;8.48;6.60;;;24.90;64.80;;;;;;4834380;29;20067;-63
2021/08/30 00:56:35;;;;;;;8.38;6.07;;;24.80;64.90;;;;;;4840970;29;20109;-62
2021/08/30 00:59:00;;;;;;;9.40;7.05;;;24.80;64.90;;;;;;4840815;29;20178;-63
2021/08/30 01:01:26;;;;;;;8.90;6.88;;;24.90;65.30;;;;;;4840947;29;20158;-63
2021/08/30 01:03:52;;;;;;;8.45;6.68;;;24.80;65.20;;;;;;4840354;29;20474;-63
2021/08/30 01:06:50;;;;;;;8.50;6.85;;;24.80;65.30;;;;;;4840796;29;20109;-64
2021/08/30 01:09:39;;;;;;;11.00;5.82;;;24.80;65.50;;;;;;4840871;29;20041;-62
2021/08/30 01:12:09;;;;;;;9.27;6.82;;;24.80;65.40;;;;;;4840171;29;20533;-64
2021/08/30 01:15:06;;;;;;;9.07;6.32;;;24.80;65.50;;;;;;4840924;29;20466;-63
2021/08/30 01:17:36;;;;;;;8.98;6.35;;;24.80;65.80;;;;;;4840640;29;20111;-63
2021/08/30 01:20:14;;;;;;;10.15;6.72;;;24.80;65.70;;;;;;4840799;29;20026;-62
2021/08/30 01:22:45;;;;;;;8.40;6.40;;;24.70;65.80;;;;;;4840543;29;20038;-64
2021/08/30 01:25:13;;;;;;;9.57;6.53;;;24.80;65.90;;;;;;4840659;29;20030;-63
2021/08/30 01:27:42;;;;;;;9.68;6.70;;;24.70;65.90;;;;;;4839499;29;20037;-62
2021/08/30 01:30:12;;;;;;;9.80;7.10;;;24.80;66.10;;;;;;4839294;29;20022;-63
2021/08/30 01:32:41;;;;;;;8.98;7.10;;;24.70;66.20;;;;;;4840531;29;20038;-63
2021/08/30 01:35:16;;;;;;;10.75;7.47;;;24.70;66.30;;;;;;4840746;29;20030;-62
2021/08/30 01:37:45;;;;;;;9.82;7.40;;;24.70;66.30;;;;;;4840817;29;20074;-62
2021/08/30 01:40:14;;;;;;;10.63;7.60;;;24.70;66.50;;;;;;4844041;29;20090;-62
2021/08/30 01:42:44;;;;;;;10.63;7.10;;;24.70;66.50;;;;;;4844122;29;20072;-63
2021/08/30 01:45:15;;;;;;;9.70;7.70;;;24.70;66.50;;;;;;4843893;29;20351;-63
2021/08/30 01:47:43;;;;;;;9.85;7.78;;;24.80;66.70;;;;;;4843597;29;20419;-63
2021/08/30 01:50:11;;;;;;;10.35;7.63;;;24.70;66.70;;;;;;4843977;29;20022;-63
2021/08/30 01:52:39;;;;;;;11.15;7.68;;;24.70;66.70;;;;;;4843894;29;20079;-63
2021/08/30 01:55:37;;;;;;;9.35;7.57;;;24.80;66.70;;;;;;4843841;29;20057;-63
2021/08/30 02:00:46;;;;;;;9.63;7.50;;;24.70;66.80;;;;;;4843530;29;20033;-64
2021/08/30 02:03:22;;;;;;;9.50;6.93;;;24.70;66.90;;;;;;4843610;29;20033;-63
2021/08/30 02:06:03;;;;;;;9.25;6.93;;;24.70;66.80;;;;;;4843497;29;20029;-63
2021/08/30 02:08:31;;;;;;;9.75;7.03;;;24.70;66.90;;;;;;4843533;29;20166;-63
2021/08/30 02:10:59;;;;;;;10.00;7.40;;;24.60;66.90;;;;;;4843351;29;20038;-63
2021/08/30 02:13:28;;;;;;;10.10;7.40;;;24.60;66.90;;;;;;4842957;29;20034;-64
2021/08/30 02:15:58;;;;;;;8.45;6.78;;;24.60;67.00;;;;;;4842263;29;20038;-63
2021/08/30 02:18:35;;;;;;;10.55;7.50;;;24.60;67.10;;;;;;4843317;29;20049;-63
2021/08/30 02:21:43;;;;;;;10.23;7.35;;;24.60;67.20;;;;;;4843371;29;20037;-63
2021/08/30 02:24:36;;;;;;;9.65;7.00;;;24.50;67.50;;;;;;4768523;30;20032;-63
2021/08/30 02:27:15;;;;;;;9.60;7.43;;;24.50;67.40;;;;;;4819701;29;20081;-65
2021/08/30 02:30:08;;;;;;;9.57;6.53;;;24.50;67.50;;;;;;4824792;29;20079;-63
2021/08/30 02:32:36;;;;;;;8.98;7.00;;;24.50;67.60;;;;;;4835302;29;20557;-62
2021/08/30 02:35:05;;;;;;;10.10;7.03;;;24.50;67.60;;;;;;4843336;29;20391;-63
2021/08/30 02:37:32;;;;;;;11.30;6.93;;;24.40;67.70;;;;;;4842781;29;20058;-64
2021/08/30 02:40:00;;;;;;;10.88;7.47;;;24.50;67.70;;;;;;4843114;29;20443;-64
2021/08/30 02:42:28;;;;;;;9.70;7.50;;;24.50;67.90;;;;;;4842925;29;20036;-63
2021/08/30 02:44:55;;;;;;;9.30;7.40;;;24.50;67.80;;;;;;4842756;29;20113;-63
2021/08/30 02:47:22;;;;;;;10.48;7.30;;;24.50;67.90;;;;;;4826024;29;20101;-63
2021/08/30 02:49:48;;;;;;;10.98;7.63;;;24.50;68.50;;;;;;4840397;29;20392;-63
2021/08/30 02:52:16;;;;;;;9.27;7.07;;;24.50;67.80;;;;;;4842574;29;20030;-63
2021/08/30 02:54:45;;;;;;;10.30;7.03;;;24.50;67.80;;;;;;4842683;29;20062;-64
2021/08/30 02:57:12;;;;;;;8.80;6.47;;;24.50;67.80;;;;;;4842540;29;20490;-62
2021/08/30 02:59:39;;;;;;;8.85;7.03;;;24.40;67.90;;;;;;4840498;29;20072;-64
2021/08/30 03:02:05;;;;;;;9.73;6.72;;;24.40;68.40;;;;;;4840020;29;20054;-64
2021/08/30 03:04:32;;;;;;;11.13;7.47;;;24.40;67.90;;;;;;4842458;29;20034;-63
2021/08/30 03:06:59;;;;;;;9.77;6.60;;;24.40;68.00;;;;;;4842697;29;20494;-63
2021/08/30 03:09:25;;;;;;;10.48;7.55;;;24.40;68.00;;;;;;4842297;29;20026;-64
2021/08/30 03:11:53;;;;;;;10.85;6.95;;;24.40;68.10;;;;;;4842097;29;20025;-63
2021/08/30 03:14:23;;;;;;;9.85;7.20;;;24.40;68.20;;;;;;4842444;29;20034;-64
2021/08/30 03:16:52;;;;;;;8.88;7.35;;;24.30;68.10;;;;;;4842282;29;20037;-64
2021/08/30 03:19:18;;;;;;;10.30;7.78;;;24.40;68.30;;;;;;4842285;29;20054;-62
2021/08/30 03:21:46;;;;;;;9.27;7.20;;;24.40;68.30;;;;;;4842261;29;20029;-63
2021/08/30 03:24:13;;;;;;;10.23;8.05;;;24.40;68.90;;;;;;4841979;29;20124;-64
2021/08/30 03:26:40;;;;;;;11.10;8.02;;;24.40;68.40;;;;;;4842211;29;20030;-63
2021/08/30 03:29:07;;;;;;;10.38;8.25;;;24.40;68.50;;;;;;4842084;29;20069;-64
2021/08/30 03:31:34;;;;;;;10.13;8.15;;;24.40;68.50;;;;;;4842009;29;20090;-63
2021/08/30 03:34:01;;;;;;;12.25;9.20;;;24.50;68.50;;;;;;4841735;29;20394;-64
2021/08/30 03:36:28;;;;;;;11.10;8.93;;;24.40;68.40;;;;;;4841925;29;20030;-64
2021/08/30 03:38:56;;;;;;;10.57;7.65;;;24.50;68.50;;;;;;4842007;29;20033;-64
2021/08/30 03:41:24;;;;;;;10.45;8.35;;;24.50;68.50;;;;;;4825335;29;20025;-62
2021/08/30 03:43:51;;;;;;;10.48;8.50;;;24.50;68.40;;;;;;4841803;29;20026;-64
2021/08/30 03:46:17;;;;;;;9.48;7.32;;;24.60;68.30;;;;;;4841416;29;20386;-64
2021/08/30 03:48:43;;;;;;;10.05;6.93;;;24.60;68.30;;;;;;4841762;29;20441;-64
2021/08/30 03:51:10;;;;;;;9.38;6.90;;;24.60;68.30;;;;;;4841731;29;20030;-63
2021/08/30 03:53:37;;;;;;;9.13;6.88;;;24.60;68.20;;;;;;4841648;29;20018;-63
2021/08/30 03:56:04;;;;;;;9.95;7.78;;;24.60;68.20;;;;;;4841600;29;20021;-63
2021/08/30 03:58:31;;;;;;;9.57;7.70;;;24.70;68.20;;;;;;4841432;29;20482;-63
2021/08/30 04:01:03;;;;;;;9.30;7.72;;;24.70;68.10;;;;;;4841489;29;20034;-62
2021/08/30 04:03:30;;;;;;;11.43;8.10;;;24.70;68.00;;;;;;4841565;29;20493;-62
2021/08/30 04:05:56;;;;;;;12.02;8.27;;;24.80;68.00;;;;;;4841366;29;20065;-63
2021/08/30 04:08:22;;;;;;;9.70;7.43;;;24.80;68.00;;;;;;4840795;29;20025;-62
2021/08/30 04:10:48;;;;;;;10.27;7.60;;;24.90;67.90;;;;;;4841398;29;20022;-61
2021/08/30 04:13:14;;;;;;;9.10;6.80;;;24.90;67.70;;;;;;4841363;29;20359;-61
2021/08/30 04:15:39;;;;;;;9.48;6.97;;;24.90;67.70;;;;;;4841352;29;20080;-63
2021/08/30 04:18:05;;;;;;;8.30;6.00;;;25.00;67.60;;;;;;4840884;29;20081;-62
2021/08/30 04:20:30;;;;;;;8.25;6.07;;;25.00;67.50;;;;;;4824900;29;20094;-62
2021/08/30 04:22:56;;;;;;;7.50;5.70;;;25.00;67.40;;;;;;4841186;29;20052;-63
2021/08/30 04:25:22;;;;;;;8.48;6.07;;;25.10;67.40;;;;;;4841191;29;20033;-62
2021/08/30 04:27:47;;;;;;;7.50;5.80;;;25.10;67.40;;;;;;4841148;29;20066;-62
2021/08/30 04:30:13;;;;;;;8.43;5.72;;;25.10;67.20;;;;;;4840826;29;20053;-62
2021/08/30 04:32:40;;;;;;;7.68;5.38;;;25.20;67.30;;;;;;4840480;29;20379;-63
2021/08/30 04:35:07;;;;;;;8.25;5.80;;;25.20;67.20;;;;;;4840959;29;20026;-63
2021/08/30 04:37:33;;;;;;;7.82;5.80;;;25.20;67.20;;;;;;4840982;29;20109;-63
2021/08/30 04:39:59;;;;;;;9.00;5.90;;;25.20;67.00;;;;;;4841135;29;20554;-62
2021/08/30 04:42:25;;;;;;;7.90;5.82;;;25.30;67.10;;;;;;4840663;29;20030;-65
2021/08/30 04:44:50;;;;;;;7.72;5.30;;;25.30;67.10;;;;;;4840744;29;20065;-61
2021/08/30 04:47:17;;;;;;;9.98;6.10;;;25.30;67.00;;;;;;4840952;29;20530;-64
2021/08/30 04:49:42;;;;;;;8.52;6.13;;;25.40;67.00;;;;;;4838670;29;20030;-64
2021/08/30 04:52:08;;;;;;;7.78;5.72;;;25.40;67.00;;;;;;4840921;29;20098;-64
2021/08/30 04:54:34;;;;;;;8.23;6.10;;;25.40;67.00;;;;;;4840792;29;20037;-64
2021/08/30 04:57:00;;;;;;;7.95;5.68;;;25.50;66.90;;;;;;4840935;29;20371;-64
2021/08/30 04:59:25;;;;;;;8.45;5.53;;;25.50;66.80;;;;;;4840742;29;20188;-64
2021/08/30 05:01:51;;;;;;;9.70;6.25;;;25.60;66.70;;;;;;4840054;29;20525;-63
2021/08/30 05:04:17;;;;;;;8.00;5.25;;;25.70;66.60;;;;;;4840471;29;20042;-63
2021/08/30 05:06:42;;;;;;;7.95;5.82;;;25.80;66.40;;;;;;4840880;29;20038;-63
2021/08/30 05:09:08;;;;;;;7.97;5.47;;;25.80;66.20;;;;;;4840500;29;20076;-64
2021/08/30 05:11:37;;;;;;;7.85;5.75;;;25.90;65.90;;;;;;4840667;29;20053;-64
2021/08/30 05:14:04;;;;;;;7.72;5.70;;;26.00;65.70;;;;;;4843505;29;20042;-64
2021/08/30 05:16:30;;;;;;;9.52;5.80;;;26.10;65.50;;;;;;4844376;29;20883;-64
2021/08/30 05:18:55;;;;;;;7.60;5.32;;;26.10;65.00;;;;;;4843722;29;20085;-64
2021/08/30 05:21:21;;;;;;;7.97;6.03;;;26.20;64.80;;;;;;4844141;29;20038;-63
2021/08/30 05:23:47;;;;;;;8.48;6.03;;;26.20;64.20;;;;;;4844025;29;20030;-64
2021/08/30 05:26:12;;;;;;;8.25;6.05;;;26.20;64.00;;;;;;4843831;29;20085;-63
2021/08/30 05:28:38;;;;;;;8.50;6.00;;;26.20;63.40;;;;;;4843967;29;20034;-64
2021/08/30 05:31:04;;;;;;;9.57;6.10;;;26.30;63.40;;;;;;4827617;29;20030;-64
2021/08/30 05:33:29;;;;;;;7.88;5.50;;;26.30;63.00;;;;;;4843843;29;20042;-63
2021/08/30 05:35:56;;;;;;;8.50;5.95;;;26.40;62.90;;;;;;4843566;29;20041;-63
2021/08/30 05:38:21;;;;;;;10.95;6.57;;;26.40;62.70;;;;;;4843809;29;20034;-64
2021/08/30 05:40:47;;;;;;;8.57;5.60;;;26.50;62.10;;;;;;4843855;29;20113;-63
2021/08/30 05:43:12;;;;;;;9.70;5.60;;;26.60;61.90;;;;;;4843773;29;20178;-64
2021/08/30 05:45:38;;;;;;;8.02;5.55;;;26.60;62.20;;;;;;4843040;29;20113;-64
2021/08/30 05:48:05;;;;;;;9.23;5.80;;;26.60;61.40;;;;;;4843320;29;20038;-65
2021/08/30 05:50:30;;;;;;;8.43;6.05;;;26.70;61.10;;;;;;4843340;29;20050;-63
2021/08/30 05:52:56;;;;;;;8.40;5.93;;;26.70;60.90;;;;;;4843815;29;20482;-63
2021/08/30 05:55:22;;;;;;;8.25;5.75;;;26.70;60.60;;;;;;4843754;29;20174;-63
2021/08/30 05:57:48;;;;;;;8.18;5.90;;;26.70;60.50;;;;;;4843560;29;20040;-62
2021/08/30 06:00:14;;;;;;;8.35;5.50;;;26.70;60.30;;;;;;4843200;29;20030;-62
2021/08/30 06:02:40;;;;;;;8.68;5.85;;;26.70;60.10;;;;;;4843194;29;20201;-64
2021/08/30 06:05:06;;;;;;;7.88;5.60;;;26.70;59.80;;;;;;4842167;29;20057;-64
2021/08/30 06:07:32;;;;;;;9.43;6.15;;;26.70;59.70;;;;;;4842816;29;20041;-64
2021/08/30 06:09:57;;;;;;;10.07;6.18;;;26.80;59.50;;;;;;4842791;29;20026;-64
2021/08/30 06:12:23;;;;;;;8.27;5.80;;;26.70;59.40;;;;;;4842909;29;20045;-63
2021/08/30 06:14:49;;;;;;;10.70;6.57;;;26.80;59.40;;;;;;4842899;29;20394;-63
2021/08/30 06:17:14;;;;;;;8.50;6.07;;;26.80;59.00;;;;;;4842982;29;20034;-64
2021/08/30 06:19:41;;;;;;;7.80;5.57;;;26.90;59.00;;;;;;4842936;29;20053;-63
2021/08/30 06:22:08;;;;;;;9.93;6.15;;;27.00;58.90;;;;;;4843290;29;20117;-62
2021/08/30 06:24:33;;;;;;;8.82;5.32;;;27.00;58.70;;;;;;4842730;29;20029;-63
2021/08/30 06:26:59;;;;;;;8.52;5.82;;;27.00;58.60;;;;;;4824991;29;20027;-63
2021/08/30 06:29:25;;;;;;;7.97;5.20;;;27.10;58.50;;;;;;4824471;29;20027;-64
2021/08/30 06:31:52;;;;;;;8.18;5.57;;;27.10;58.30;;;;;;4824558;29;20062;-63
2021/08/30 06:34:18;;;;;;;8.80;5.28;;;27.10;58.20;;;;;;4824702;29;20027;-62
2021/08/30 06:36:44;;;;;;;7.85;5.50;;;27.20;58.00;;;;;;4843421;29;20105;-62
2021/08/30 06:39:10;;;;;;;8.82;5.43;;;27.20;58.00;;;;;;4854583;29;20060;-64
2021/08/30 06:41:35;;;;;;;7.75;5.18;;;27.20;58.00;;;;;;4842555;29;20032;-63
2021/08/30 06:44:01;;;;;;;8.00;5.43;;;27.20;57.90;;;;;;4842498;29;20389;-63
2021/08/30 06:46:27;;;;;;;8.15;5.43;;;27.30;57.80;;;;;;4837690;29;20682;-63
2021/08/30 06:48:53;;;;;;;7.57;5.20;;;27.30;57.70;;;;;;4841854;29;20466;-63
2021/08/30 06:51:18;;;;;;;8.35;5.80;;;27.40;57.70;;;;;;4840801;29;20033;-64
2021/08/30 06:53:44;;;;;;;7.80;5.60;;;27.40;57.50;;;;;;4828049;29;20030;-64
2021/08/30 06:56:10;;;;;;;9.15;5.30;;;27.50;57.50;;;;;;4841999;29;20374;-65
2021/08/30 06:58:36;;;;;;;7.35;5.50;;;27.50;57.40;;;;;;4842123;29;20030;-65
2021/08/30 07:01:01;;;;;;;7.68;5.35;;;27.50;57.30;;;;;;4842326;29;20026;-65
2021/08/30 07:03:27;;;;;;;8.30;5.32;;;27.50;57.30;;;;;;4841785;29;20025;-65
2021/08/30 07:05:53;;;;;;;8.55;5.13;;;27.60;57.30;;;;;;4842062;29;20420;-65
2021/08/30 07:08:20;;;;;;;8.32;5.78;;;27.70;57.20;;;;;;4841731;29;20489;-65
2021/08/30 07:10:46;;;;;;;9.48;5.60;;;27.80;57.10;;;;;;4841968;29;20034;-64
2021/08/30 07:13:11;;;;;;;7.25;5.10;;;27.90;57.10;;;;;;4841751;29;20030;-64
2021/08/30 07:15:37;;;;;;;7.57;5.32;;;28.10;57.10;;;;;;4841526;29;20040;-64
2021/08/30 07:18:03;;;;;;;7.75;5.25;;;28.20;57.10;;;;;;4841183;29;20057;-63
2021/08/30 07:20:29;;;;;;;8.43;5.15;;;28.30;57.00;;;;;;4841395;29;20134;-65
2021/08/30 07:22:55;;;;;;;8.23;5.70;;;28.50;57.00;;;;;;4841923;29;20496;-65
2021/08/30 07:25:20;;;;;;;8.43;4.93;;;28.60;57.00;;;;;;4841206;29;20116;-64
2021/08/30 07:27:46;;;;;;;8.63;5.30;;;28.80;57.00;;;;;;4841173;29;20474;-63
2021/08/30 07:30:12;;;;;;;8.73;5.47;;;28.90;56.90;;;;;;4833641;29;20688;-63
2021/08/30 07:32:38;;;;;;;7.68;4.90;;;29.10;56.80;;;;;;4823645;29;20049;-65
2021/08/30 07:35:04;;;;;;;7.47;4.97;;;29.20;56.60;;;;;;4828599;29;20034;-63
2021/08/30 07:37:29;;;;;;;7.57;5.07;;;29.40;56.50;;;;;;4839285;29;20117;-64
2021/08/30 07:39:55;;;;;;;7.95;5.13;;;29.50;56.40;;;;;;4841446;29;20117;-65
2021/08/30 07:42:21;;;;;;;8.18;5.00;;;29.60;56.30;;;;;;4839358;29;20034;-64
2021/08/30 07:44:46;;;;;;;7.10;4.95;;;29.80;56.10;;;;;;4833152;29;20164;-65
2021/08/30 07:47:12;;;;;;;7.47;5.30;;;30.00;56.20;;;;;;4841524;29;20064;-64
2021/08/30 07:49:38;;;;;;;7.32;5.03;;;30.10;55.90;;;;;;4831467;29;20133;-64
2021/08/30 07:52:04;;;;;;;6.97;5.30;;;30.20;55.80;;;;;;4839214;29;20029;-64
2021/08/30 07:54:32;;;;;;;8.95;5.20;;;30.30;55.80;;;;;;4839567;29;20390;-64
2021/08/30 07:56:58;;;;;;;6.90;4.72;;;30.40;55.80;;;;;;4832971;29;20072;-64
2021/08/30 07:59:23;;;;;;;7.25;5.00;;;30.50;55.80;;;;;;4840483;29;20058;-63
2021/08/30 08:01:49;;;;;;;9.25;5.65;;;30.50;55.60;;;;;;4839476;29;20030;-63
2021/08/30 08:04:15;;;;;;;7.53;4.95;;;30.60;55.50;;;;;;4849575;29;20061;-63
2021/08/30 08:06:40;;;;;;;8.43;5.35;;;30.60;55.50;;;;;;4842245;29;20211;-64
2021/08/30 08:09:06;;;;;;;9.68;5.20;;;30.70;55.40;;;;;;4841057;29;20044;-63
2021/08/30 08:11:32;;;;;;;7.22;5.03;;;30.70;56.00;;;;;;4840566;29;20120;-64
2021/08/30 08:13:58;;;;;;;6.80;4.70;;;30.70;55.30;;;;;;4841277;29;20082;-64
2021/08/30 08:16:23;;;;;;;9.38;5.10;;;30.80;55.30;;;;;;4841164;29;20065;-63
2021/08/30 08:18:52;;;;;;;7.45;4.75;;;30.80;55.20;;;;;;4840760;29;20126;-62
2021/08/30 08:21:18;;;;;;;7.55;5.05;;;30.90;55.20;;;;;;4841158;29;20033;-64
2021/08/30 08:23:44;;;;;;;8.35;5.28;;;31.00;55.20;;;;;;4839893;29;20026;-63
2021/08/30 08:26:10;;;;;;;10.48;5.82;;;31.00;55.30;;;;;;4839597;29;20090;-63
2021/08/30 08:28:35;;;;;;;13.63;6.95;;;31.20;55.40;;;;;;4841200;29;20034;-63
2021/08/30 08:31:01;;;;;;;15.23;7.63;;;31.30;55.30;;;;;;4840177;29;20022;-64
2021/08/30 08:33:27;;;;;;;11.45;6.40;;;31.30;55.00;;;;;;4840793;29;20058;-64
2021/08/30 08:35:53;;;;;;;8.95;5.38;;;31.40;54.80;;;;;;4841175;29;20033;-64
2021/08/30 08:38:18;;;;;;;10.43;5.90;;;31.40;54.60;;;;;;4840815;29;20026;-64
2021/08/30 08:40:44;;;;;;;9.30;5.78;;;31.50;54.50;;;;;;4840749;29;20085;-65
2021/08/30 08:43:15;;;;;;;8.55;5.60;;;31.60;54.40;;;;;;4840797;29;20077;-64
2021/08/30 08:45:46;;;;;;;11.15;5.55;;;31.70;54.10;;;;;;4839287;29;20098;-65
2021/08/30 08:48:12;;;;;;;9.07;5.20;;;31.80;53.90;;;;;;4835605;29;20033;-64
2021/08/30 08:50:38;;;;;;;10.85;5.68;;;31.80;53.60;;;;;;4856210;29;20385;-66
2021/08/30 08:53:05;;;;;;;8.45;5.13;;;31.70;53.40;;;;;;4833692;29;20041;-64
2021/08/30 08:55:37;;;;;;;7.85;4.90;;;31.80;53.40;;;;;;4844366;29;20045;-65
2021/08/30 08:58:17;;;;;;;8.80;5.32;;;31.80;53.40;;;;;;4843143;29;20033;-66
2021/08/30 09:00:45;;;;;;;8.70;5.47;;;31.90;53.10;;;;;;4843589;29;20066;-65
2021/08/30 09:03:15;;;;;;;8.95;5.57;;;31.90;53.20;;;;;;4844253;29;20086;-66
2021/08/30 09:05:41;;;;;;;8.02;4.90;;;31.90;52.90;;;;;;4835066;29;20033;-64
2021/08/30 09:08:28;;;;;;;9.35;5.85;;;31.90;52.70;;;;;;4843903;29;20026;-64
2021/08/30 09:10:54;;;;;;;10.05;5.28;;;31.90;52.50;;;;;;4827309;29;20053;-64
2021/08/30 09:13:29;;;;;;;9.57;5.43;;;31.90;52.40;;;;;;4842705;29;20026;-64
2021/08/30 09:15:56;;;;;;;9.43;5.22;;;31.90;52.40;;;;;;4842922;29;20037;-63
2021/08/30 09:18:28;;;;;;;7.65;4.75;;;32.00;52.50;;;;;;4843875;29;20605;-64
2021/08/30 09:20:53;;;;;;;;;;;32.20;52.40;;;;;;4845016;29;20044;-64
2021/08/30 09:23:19;;;;;;;11.05;6.45;;;32.30;52.00;;;;;;4844115;29;19995;-65
2021/08/30 09:25:45;;;;;;;8.82;6.25;;;32.50;52.40;;;;;;4843853;29;20034;-64
2021/08/30 09:28:11;;;;;;;9.93;5.85;;;32.80;52.20;;;;;;4842573;29;20038;-65
2021/08/30 09:30:37;;;;;;;9.93;5.93;;;33.00;51.80;;;;;;4842658;29;20474;-64
2021/08/30 09:33:03;;;;;;;10.52;6.38;;;33.30;51.50;;;;;;4827234;29;20037;-64
2021/08/30 09:35:29;;;;;;;10.00;6.40;;;33.50;51.20;;;;;;4843769;29;20399;-64
2021/08/30 09:37:55;;;;;;;12.23;6.88;;;33.60;50.80;;;;;;4842537;29;20038;-62
2021/08/30 09:40:27;;;;;;;12.68;6.75;;;33.90;50.70;;;;;;4810970;29;20076;-63
2021/08/30 09:42:57;;;;;;;13.88;7.60;;;34.00;50.40;;;;;;4842896;29;20038;-62
2021/08/30 09:45:26;;;;;;;19.52;10.57;;;34.30;50.50;;;;;;4841673;29;20038;-62
2021/08/30 09:48:03;;;;;;;19.75;10.70;;;34.60;50.50;;;;;;4841921;29;20026;-64
2021/08/30 09:50:33;;;;;;;20.73;11.45;;;34.90;49.70;;;;;;4843499;29;20029;-61
2021/08/30 09:53:01;;;;;;;13.93;8.83;;;35.10;49.90;;;;;;4842353;29;20431;-63
2021/08/30 09:55:28;;;;;;;14.82;9.55;;;35.20;49.30;;;;;;4842829;29;20276;-61
2021/08/30 09:57:56;;;;;;;12.57;8.38;;;35.20;49.00;;;;;;4843337;29;20038;-62
2021/08/30 10:00:22;;;;;;;14.40;8.27;;;35.20;48.80;;;;;;4843409;29;20064;-63
2021/08/30 10:02:52;;;;;;;13.00;7.40;;;35.20;48.50;;;;;;4842783;29;20037;-64
2021/08/30 10:05:19;;;;;;;10.13;6.33;;;35.20;48.40;;;;;;4841578;29;20030;-62
2021/08/30 10:07:46;;;;;;;11.15;6.97;;;35.10;48.20;;;;;;4843201;29;20033;-62
2021/08/30 10:10:16;;;;;;;11.38;7.05;;;34.90;48.20;;;;;;4842244;29;20110;-63
2021/08/30 10:12:42;;;;;;;10.85;6.30;;;34.70;48.00;;;;;;4842230;29;20046;-63
2021/08/30 10:15:10;;;;;;;10.43;6.70;;;34.50;48.20;;;;;;4842654;29;20385;-64
2021/08/30 10:17:43;;;;;;;10.02;6.30;;;34.40;48.30;;;;;;4842874;29;20375;-65
2021/08/30 10:20:17;;;;;;;10.25;6.13;;;34.30;48.40;;;;;;4842184;29;20041;-64
2021/08/30 10:22:59;;;;;;;10.18;5.93;;;34.10;48.50;;;;;;4842285;29;20499;-63
2021/08/30 10:25:25;;;;;;;11.05;6.15;;;34.10;48.50;;;;;;4837092;29;20036;-63
2021/08/30 10:28:00;;;;;;;10.35;6.53;;;34.10;48.70;;;;;;4842410;29;20034;-64
2021/08/30 10:30:27;;;;;;;9.32;6.50;;;34.10;48.50;;;;;;4842475;29;20045;-63
2021/08/30 10:32:55;;;;;;;9.95;6.38;;;34.20;48.70;;;;;;4842678;29;20026;-63
2021/08/30 10:35:25;;;;;;;9.25;5.82;;;34.40;48.50;;;;;;4842231;29;20026;-63
2021/08/30 10:37:57;;;;;;;9.50;6.05;;;34.60;48.30;;;;;;4842171;29;20398;-63
2021/08/30 10:40:24;;;;;;;10.88;6.13;;;34.80;48.20;;;;;;4841754;29;20054;-64
2021/08/30 10:43:06;;;;;;;7.60;5.38;;;34.90;48.00;;;;;;4841634;29;20135;-62
2021/08/30 10:45:32;;;;;;;10.35;5.50;;;34.90;47.20;;;;;;4834750;29;20367;-64
2021/08/30 10:48:01;;;;;;;7.85;5.43;;;34.70;47.60;;;;;;4843194;29;20113;-64
2021/08/30 10:50:27;;;;;;;8.48;5.35;;;34.60;47.60;;;;;;4851541;29;20150;-63
2021/08/30 10:53:09;;;;;;;7.35;5.00;;;34.40;47.70;;;;;;4826433;29;20105;-64
2021/08/30 10:55:40;;;;;;;7.72;5.05;;;34.20;47.50;;;;;;4834512;29;20467;-64
2021/08/30 10:58:11;;;;;;;9.18;5.07;;;34.10;47.70;;;;;;4842476;29;20054;-64
2021/08/30 11:00:37;;;;;;;7.43;5.28;;;33.80;47.80;;;;;;4841930;29;20058;-63
2021/08/30 11:03:03;;;;;;;7.80;5.00;;;33.80;48.00;;;;;;4841977;29;20077;-64
2021/08/30 11:05:31;;;;;;;8.27;5.13;;;33.60;48.00;;;;;;4857324;29;20029;-64
2021/08/30 11:07:57;;;;;;;7.25;4.90;;;33.50;47.90;;;;;;4828760;29;20026;-63
2021/08/30 11:10:25;;;;;;;7.13;4.93;;;33.40;48.10;;;;;;4838590;29;20037;-63
2021/08/30 11:12:55;;;;;;;9.07;5.18;;;33.20;48.20;;;;;;4841595;29;20152;-64
2021/08/30 11:15:21;;;;;;;9.27;5.03;;;33.10;48.30;;;;;;4840127;29;20041;-62
2021/08/30 11:17:47;;;;;;;8.70;5.25;;;33.00;48.40;;;;;;4840672;29;20673;-63
2021/08/30 11:20:17;;;;;;;7.38;5.20;;;33.00;48.40;;;;;;4840174;29;20094;-63
2021/08/30 11:22:56;;;;;;;8.05;5.40;;;32.90;48.50;;;;;;4841177;29;20662;-64
2021/08/30 11:25:22;;;;;;;8.95;5.55;;;32.80;48.60;;;;;;4841741;29;20117;-62
2021/08/30 11:27:48;;;;;;;8.02;5.57;;;32.80;48.70;;;;;;4841555;29;20169;-62
2021/08/30 11:30:14;;;;;;;9.45;6.00;;;32.80;48.80;;;;;;4839816;29;20061;-63
2021/08/30 11:32:41;;;;;;;10.32;5.82;;;32.70;48.70;;;;;;4841692;29;20069;-64
2021/08/30 11:35:14;;;;;;;7.55;5.45;;;32.60;48.70;;;;;;4840418;29;20034;-64
2021/08/30 11:37:40;;;;;;;8.68;5.25;;;32.60;48.90;;;;;;4825430;29;20067;-63
2021/08/30 11:40:09;;;;;;;7.75;5.53;;;32.70;49.20;;;;;;4841486;29;20034;-64
2021/08/30 11:42:36;;;;;;;8.73;5.22;;;32.80;49.20;;;;;;4839050;29;20030;-62
2021/08/30 11:45:05;;;;;;;8.07;5.00;;;32.90;49.10;;;;;;4841804;29;20125;-63
2021/08/30 11:47:31;;;;;;;7.38;5.15;;;33.30;49.40;;;;;;4840736;29;20041;-63
2021/08/30 11:50:01;;;;;;;7.60;4.80;;;33.80;49.70;;;;;;4822202;29;20066;-63
2021/08/30 11:52:30;;;;;;;8.38;5.47;;;34.60;49.50;;;;;;4836559;29;20398;-63
2021/08/30 11:55:07;;;;;;;8.70;5.60;;;35.30;49.00;;;;;;4840047;29;20025;-63
2021/08/30 11:57:43;;;;;;;8.75;5.70;;;35.90;48.30;;;;;;4841374;29;20037;-63
2021/08/30 12:00:12;;;;;;;9.05;5.45;;;36.30;47.00;;;;;;4842111;29;20086;-63
2021/08/30 12:02:41;;;;;;;7.70;5.40;;;36.50;47.20;;;;;;4825368;29;20417;-64
2021/08/30 12:05:08;;;;;;;7.63;5.38;;;36.60;47.00;;;;;;4839739;29;20033;-63
2021/08/30 12:07:35;;;;;;;8.32;5.30;;;37.00;47.00;;;;;;4839257;29;20025;-64
2021/08/30 12:10:09;;;;;;;7.25;5.13;;;37.60;46.90;;;;;;4837673;29;20049;-63
2021/08/30 12:12:50;;;;;;;8.70;5.03;;;38.30;46.50;;;;;;4840750;29;20064;-68
2021/08/30 12:15:17;;;;;;;;;;;39.00;45.80;;;;;;4841117;29;20474;-63
2021/08/30 12:17:51;;;;;;;11.90;5.30;;;39.60;42.60;;;;;;4840469;29;20390;-64
2021/08/30 12:20:32;;;;;;;10.45;5.15;;;40.10;44.60;;;;;;4840673;29;20038;-64
2021/08/30 12:23:00;;;;;;;7.00;4.63;;;40.30;44.00;;;;;;4839610;29;20078;-64
2021/08/30 12:25:27;;;;;;;7.32;4.90;;;40.20;43.40;;;;;;4839481;29;20044;-64
2021/08/30 12:27:59;;;;;;;7.47;4.90;;;40.10;43.20;;;;;;4840731;29;20196;-65
2021/08/30 12:30:40;;;;;;;7.40;4.45;;;39.90;43.00;;;;;;4822502;29;20382;-64
2021/08/30 12:33:09;;;;;;;7.95;4.70;;;39.80;42.00;;;;;;4838333;29;20030;-63
2021/08/30 12:35:45;;;;;;;7.30;4.75;;;39.90;43.10;;;;;;4840970;29;20440;-64
2021/08/30 12:38:23;;;;;;;7.10;4.85;;;40.30;42.50;;;;;;4840985;29;20037;-63
2021/08/30 12:40:55;;;;;;;7.70;5.00;;;40.80;42.80;;;;;;4834109;29;20518;-63
2021/08/30 12:43:21;;;;;;;7.93;4.40;;;41.20;42.50;;;;;;4837541;29;20379;-63
2021/08/30 12:45:49;;;;;;;8.05;4.88;;;41.60;42.20;;;;;;4839172;29;20500;-63
2021/08/30 12:48:16;;;;;;;9.40;4.70;;;41.80;41.60;;;;;;4840500;29;20105;-64
2021/08/30 12:50:43;;;;;;;7.72;5.40;;;41.80;41.10;;;;;;4840466;29;20033;-64
2021/08/30 12:53:09;;;;;;;8.48;5.40;;;41.80;41.10;;;;;;4840851;29;20030;-63